Time;durP1;ratioP1;P1;durP2;ratioP2;P2;SDS_P1;SDS_P2;PMS_P1;PMS_P2;Temp;Humidity;BMP_temperature;BMP_pressure;BME280_temperature;BME280_humidity;BME280_pressure;Samples;Min_cycle;Max_cycle;Signal;HPM_P1;HPM_P2
2021/12/31 00:00:47;;;;;;;12.68;8.05;;;;;;;;;;5059814;28;20091;-83
2021/12/31 00:03:16;;;;;;;12.38;7.40;;;;;;;;;;5061558;28;20112;-82
2021/12/31 00:05:43;;;;;;;10.02;6.60;;;;;;;;;;5055090;28;20021;-81
2021/12/31 00:08:08;;;;;;;12.88;8.32;;;;;;;;;;5056989;28;20040;-84
2021/12/31 00:10:34;;;;;;;13.82;8.15;;;;;;;;;;5039623;28;20025;-83
2021/12/31 00:12:59;;;;;;;15.23;8.77;;;;;;;;;;5054672;28;20021;-83
2021/12/31 00:15:25;;;;;;;14.07;8.88;;;;;;;;;;5038830;28;20035;-82
2021/12/31 00:17:51;;;;;;;13.30;7.15;;;;;;;;;;5041946;28;20380;-83
2021/12/31 00:20:20;;;;;;;12.98;7.70;;;;;;;;;;5054614;28;20032;-85
2021/12/31 00:25:21;;;;;;;13.40;8.25;;;;;;;;;;5056032;28;20132;-84
2021/12/31 00:27:47;;;;;;;13.00;9.00;;;;;;;;;;5047746;28;20468;-83
2021/12/31 00:30:13;;;;;;;13.68;9.10;;;;;;;;;;5066021;28;20070;-84
2021/12/31 00:32:39;;;;;;;16.88;9.77;;;;;;;;;;5055913;28;20101;-85
2021/12/31 00:35:06;;;;;;;14.10;8.65;;;;;;;;;;5070919;28;20111;-82
2021/12/31 00:37:33;;;;;;;13.77;8.65;;;;;;;;;;5068364;28;20032;-83
2021/12/31 00:39:59;;;;;;;17.17;10.18;;;;;;;;;;5061156;28;20029;-85
2021/12/31 00:42:24;;;;;;;14.82;9.75;;;;;;;;;;5054416;28;20056;-82
2021/12/31 00:44:51;;;;;;;14.77;10.07;;;;;;;;;;5040509;28;20060;-83
2021/12/31 00:47:16;;;;;;;14.98;8.68;;;;;;;;;;5054115;28;20041;-83
2021/12/31 00:49:43;;;;;;;15.10;9.15;;;;;;;;;;5042857;28;20054;-84
2021/12/31 00:52:08;;;;;;;15.45;8.73;;;;;;;;;;5054109;28;20041;-84
2021/12/31 00:54:34;;;;;;;16.42;9.93;;;;;;;;;;5048191;28;20035;-85
2021/12/31 00:57:03;;;;;;;18.15;10.35;;;;;;;;;;5040011;28;20238;-83
2021/12/31 00:59:33;;;;;;;15.70;9.55;;;;;;;;;;5044780;28;20047;-83
2021/12/31 01:01:59;;;;;;;20.38;10.75;;;;;;;;;;5055910;28;20032;-83
2021/12/31 01:04:26;;;;;;;17.92;10.55;;;;;;;;;;5039869;28;20036;-84
2021/12/31 01:06:51;;;;;;;18.90;10.35;;;;;;;;;;5065451;28;20032;-84
2021/12/31 01:09:17;;;;;;;16.73;10.50;;;;;;;;;;5037637;28;20024;-83
2021/12/31 01:11:43;;;;;;;16.90;10.32;;;;;;;;;;5040802;28;20024;-82
2021/12/31 01:14:20;;;;;;;17.40;10.18;;;;;;;;;;5044191;28;20037;-83
2021/12/31 01:16:51;;;;;;;17.58;10.95;;;;;;;;;;5041712;28;20079;-83
2021/12/31 01:21:42;;;;;;;15.80;10.35;;;;;;;;;;5055133;28;20559;-83
2021/12/31 01:24:08;;;;;;;16.38;10.80;;;;;;;;;;5053399;28;20040;-83
2021/12/31 01:26:33;;;;;;;16.25;9.80;;;;;;;;;;5060987;28;20115;-83
2021/12/31 01:28:59;;;;;;;17.88;10.70;;;;;;;;;;5057092;28;20037;-83
2021/12/31 01:31:25;;;;;;;17.40;10.35;;;;;;;;;;5054834;28;20025;-84
2021/12/31 01:33:51;;;;;;;18.40;11.25;;;;;;;;;;5059490;28;20134;-83
2021/12/31 01:36:17;;;;;;;16.42;10.40;;;;;;;;;;5044215;28;20456;-82
2021/12/31 01:38:46;;;;;;;15.48;10.90;;;;;;;;;;5053429;28;20119;-83
2021/12/31 01:41:12;;;;;;;15.18;8.30;;;;;;;;;;5057274;28;20039;-84
2021/12/31 01:43:39;;;;;;;17.38;10.02;;;;;;;;;;5051432;28;20468;-84
2021/12/31 01:46:11;;;;;;;15.68;8.80;;;;;;;;;;5044293;28;20044;-83
2021/12/31 01:48:59;;;;;;;16.63;10.55;;;;;;;;;;5056327;28;20036;-84
2021/12/31 01:51:24;;;;;;;16.90;9.15;;;;;;;;;;5050259;28;20365;-83
2021/12/31 01:53:49;;;;;;;12.48;7.85;;;;;;;;;;5054713;28;20027;-82
2021/12/31 01:56:15;;;;;;;12.90;8.02;;;;;;;;;;5052899;28;20064;-84
2021/12/31 01:58:43;;;;;;;14.30;7.20;;;;;;;;;;5058503;28;20106;-82
2021/12/31 02:01:10;;;;;;;12.05;7.40;;;;;;;;;;5039006;28;20029;-83
2021/12/31 02:03:38;;;;;;;13.45;7.32;;;;;;;;;;5055792;28;20457;-82
2021/12/31 02:06:04;;;;;;;10.63;7.38;;;;;;;;;;5059757;28;20082;-82
2021/12/31 02:08:30;;;;;;;10.43;6.35;;;;;;;;;;5053696;28;20035;-82
2021/12/31 02:10:56;;;;;;;11.27;6.65;;;;;;;;;;5043458;28;20381;-84
2021/12/31 02:13:22;;;;;;;9.00;5.93;;;;;;;;;;5039749;28;20021;-82
2021/12/31 02:16:00;;;;;;;11.68;7.45;;;;;;;;;;5038440;28;20108;-85
2021/12/31 02:18:27;;;;;;;14.35;7.13;;;;;;;;;;5040645;28;20419;-82
2021/12/31 02:20:53;;;;;;;13.07;7.20;;;;;;;;;;5057980;28;20750;-85
2021/12/31 02:23:25;;;;;;;12.75;8.02;;;;;;;;;;5050736;28;20073;-83
2021/12/31 02:25:53;;;;;;;10.73;6.72;;;;;;;;;;5048302;28;20033;-82
2021/12/31 02:28:21;;;;;;;13.50;7.20;;;;;;;;;;5032165;28;20048;-82
2021/12/31 02:30:47;;;;;;;11.82;6.60;;;;;;;;;;5047414;28;20105;-85
2021/12/31 02:33:13;;;;;;;12.23;6.97;;;;;;;;;;5045094;28;20119;-84
2021/12/31 02:35:39;;;;;;;14.23;7.47;;;;;;;;;;5045944;28;20025;-83
2021/12/31 02:38:06;;;;;;;11.73;6.65;;;;;;;;;;5044578;28;20310;-82
2021/12/31 02:40:33;;;;;;;12.90;7.78;;;;;;;;;;5048277;28;20063;-84
2021/12/31 02:43:00;;;;;;;13.40;7.43;;;;;;;;;;5036173;28;20037;-84
2021/12/31 02:45:32;;;;;;;11.32;6.95;;;;;;;;;;5034325;28;20025;-84
2021/12/31 02:48:00;;;;;;;12.98;7.57;;;;;;;;;;5046395;28;20045;-83
2021/12/31 02:50:38;;;;;;;14.13;7.40;;;;;;;;;;5047850;28;20314;-85
2021/12/31 02:53:11;;;;;;;12.50;8.02;;;;;;;;;;5051130;28;20043;-84
2021/12/31 02:55:42;;;;;;;11.73;7.20;;;;;;;;;;5044886;28;20082;-84
2021/12/31 02:58:09;;;;;;;11.65;7.15;;;;;;;;;;5043446;28;20033;-84
2021/12/31 03:00:41;;;;;;;13.10;8.07;;;;;;;;;;5045164;28;20025;-85
2021/12/31 03:03:08;;;;;;;10.13;7.07;;;;;;;;;;5051141;28;20484;-85
2021/12/31 03:05:35;;;;;;;11.63;7.25;;;;;;;;;;5041785;28;20100;-85
2021/12/31 03:08:03;;;;;;;12.60;7.35;;;;;;;;;;5045567;28;20029;-84
2021/12/31 03:10:30;;;;;;;12.13;7.18;;;;;;;;;;5026508;28;20032;-84
2021/12/31 03:12:56;;;;;;;12.50;6.78;;;;;;;;;;5047078;28;20433;-83
2021/12/31 03:15:25;;;;;;;13.73;8.70;;;;;;;;;;5045411;28;20114;-82
2021/12/31 03:17:52;;;;;;;11.27;6.40;;;;;;;;;;5024834;28;20049;-85
2021/12/31 03:20:35;;;;;;;11.65;6.30;;;;;;;;;;5037454;28;20040;-84
2021/12/31 03:23:01;;;;;;;11.98;7.03;;;;;;;;;;5048931;28;20053;-86
2021/12/31 03:25:27;;;;;;;10.25;5.28;;;;;;;;;;5041760;28;20048;-84
2021/12/31 03:27:52;;;;;;;11.07;7.15;;;;;;;;;;5042391;28;20365;-83
2021/12/31 03:30:18;;;;;;;15.85;6.25;;;;;;;;;;5034600;28;20118;-84
2021/12/31 03:32:44;;;;;;;10.00;6.10;;;;;;;;;;5051676;28;20021;-85
2021/12/31 03:35:09;;;;;;;11.98;7.18;;;;;;;;;;5041465;28;20040;-84
2021/12/31 03:37:35;;;;;;;17.08;8.73;;;;;;;;;;5056610;28;20079;-84
2021/12/31 03:40:00;;;;;;;11.75;7.93;;;;;;;;;;5039671;28;20416;-83
2021/12/31 03:42:29;;;;;;;14.63;7.57;;;;;;;;;;5053701;28;20044;-82
2021/12/31 03:44:54;;;;;;;11.88;7.82;;;;;;;;;;5061613;28;20474;-82
2021/12/31 03:47:20;;;;;;;10.02;6.72;;;;;;;;;;5054725;28;20039;-84
2021/12/31 03:49:46;;;;;;;10.52;6.32;;;;;;;;;;5050673;28;20070;-84
2021/12/31 03:52:18;;;;;;;10.52;6.30;;;;;;;;;;5057031;28;20025;-84
2021/12/31 03:54:43;;;;;;;6.95;4.70;;;;;;;;;;5051766;28;20491;-85
2021/12/31 03:57:09;;;;;;;10.38;6.30;;;;;;;;;;5041492;28;20024;-82
2021/12/31 03:59:34;;;;;;;10.80;6.93;;;;;;;;;;5051560;28;20017;-82
2021/12/31 04:02:00;;;;;;;11.35;6.80;;;;;;;;;;5051085;28;20027;-82
2021/12/31 04:04:25;;;;;;;12.27;6.93;;;;;;;;;;5034120;28;20419;-83
2021/12/31 04:06:51;;;;;;;10.07;6.00;;;;;;;;;;5059086;28;20543;-82
2021/12/31 04:09:17;;;;;;;13.82;7.20;;;;;;;;;;5038601;28;20346;-83
2021/12/31 04:11:42;;;;;;;14.15;7.47;;;;;;;;;;5051482;28;20032;-82
2021/12/31 04:14:08;;;;;;;11.43;7.00;;;;;;;;;;5067056;28;20430;-84
2021/12/31 04:16:33;;;;;;;13.05;6.85;;;;;;;;;;5041941;28;20035;-84
2021/12/31 04:18:59;;;;;;;12.45;7.25;;;;;;;;;;5059133;28;20075;-86
2021/12/31 04:21:26;;;;;;;13.05;7.30;;;;;;;;;;5058157;28;20045;-82
2021/12/31 04:24:04;;;;;;;14.18;7.55;;;;;;;;;;5045770;28;20035;-84
2021/12/31 04:26:30;;;;;;;10.00;6.03;;;;;;;;;;5061115;28;20063;-84
2021/12/31 04:28:56;;;;;;;9.88;6.32;;;;;;;;;;5044028;28;20431;-84
2021/12/31 04:31:22;;;;;;;11.57;7.07;;;;;;;;;;5054692;28;20472;-83
2021/12/31 04:33:47;;;;;;;12.50;6.85;;;;;;;;;;5060605;28;20468;-84
2021/12/31 04:36:13;;;;;;;12.70;6.85;;;;;;;;;;5057216;28;20032;-83
2021/12/31 04:38:38;;;;;;;11.18;6.45;;;;;;;;;;5054742;28;20020;-84
2021/12/31 04:41:04;;;;;;;9.63;6.60;;;;;;;;;;5063595;28;20040;-83
2021/12/31 04:43:29;;;;;;;9.73;6.43;;;;;;;;;;5045894;28;20036;-84
2021/12/31 04:45:55;;;;;;;11.73;6.47;;;;;;;;;;5038527;28;20376;-84
2021/12/31 04:48:24;;;;;;;12.32;6.65;;;;;;;;;;5054765;28;20090;-83
2021/12/31 04:50:50;;;;;;;9.05;5.93;;;;;;;;;;5039911;28;20078;-83
2021/12/31 04:53:15;;;;;;;11.20;5.65;;;;;;;;;;5062892;28;20032;-83
2021/12/31 04:55:42;;;;;;;10.10;6.55;;;;;;;;;;5057884;28;20385;-86
2021/12/31 04:58:07;;;;;;;7.63;4.82;;;;;;;;;;5054236;28;20430;-84
2021/12/31 05:00:33;;;;;;;12.00;6.47;;;;;;;;;;5056803;28;20104;-83
2021/12/31 05:03:06;;;;;;;11.68;6.68;;;;;;;;;;5061870;28;20039;-84
2021/12/31 05:05:31;;;;;;;12.77;6.20;;;;;;;;;;5050195;28;20032;-85
2021/12/31 05:07:57;;;;;;;17.20;10.20;;;;;;;;;;5061242;28;20121;-82
2021/12/31 05:10:22;;;;;;;10.52;6.40;;;;;;;;;;5062292;28;20032;-82
2021/12/31 05:12:52;;;;;;;11.68;6.88;;;;;;;;;;5046576;28;20032;-83
2021/12/31 05:15:26;;;;;;;10.27;6.38;;;;;;;;;;5044181;28;20029;-83
2021/12/31 05:18:01;;;;;;;12.73;7.72;;;;;;;;;;5050443;28;20029;-82
2021/12/31 05:20:27;;;;;;;12.20;6.82;;;;;;;;;;5045199;28;20036;-83
2021/12/31 05:22:53;;;;;;;12.13;7.05;;;;;;;;;;5021925;28;20045;-83
2021/12/31 05:25:19;;;;;;;12.85;6.72;;;;;;;;;;5034160;28;20033;-84
2021/12/31 05:27:45;;;;;;;17.90;9.55;;;;;;;;;;5033809;28;20044;-81
2021/12/31 05:30:11;;;;;;;11.93;7.95;;;;;;;;;;5033753;28;20052;-82
2021/12/31 05:32:37;;;;;;;20.92;10.15;;;;;;;;;;5033614;28;20520;-82
2021/12/31 05:35:03;;;;;;;17.92;9.00;;;;;;;;;;5034098;28;20025;-82
2021/12/31 05:37:29;;;;;;;17.67;9.50;;;;;;;;;;5033105;28;20027;-82
2021/12/31 05:39:54;;;;;;;24.27;11.75;;;;;;;;;;5033088;28;20133;-82
2021/12/31 05:42:21;;;;;;;16.52;9.52;;;;;;;;;;5032030;28;20551;-82
2021/12/31 05:44:48;;;;;;;29.08;13.95;;;;;;;;;;5033234;28;20025;-82
2021/12/31 05:47:14;;;;;;;27.20;14.05;;;;;;;;;;5015385;28;20467;-83
2021/12/31 05:49:39;;;;;;;12.88;8.40;;;;;;;;;;5015584;28;20075;-81
2021/12/31 05:52:05;;;;;;;13.50;7.82;;;;;;;;;;5015940;28;20473;-82
2021/12/31 05:54:32;;;;;;;14.50;7.28;;;;;;;;;;5033608;28;20132;-81
2021/12/31 05:56:57;;;;;;;11.25;6.60;;;;;;;;;;5033028;28;20025;-82
2021/12/31 05:59:23;;;;;;;10.10;5.45;;;;;;;;;;5014972;28;20040;-84
2021/12/31 06:01:48;;;;;;;12.32;6.45;;;;;;;;;;5015209;28;20496;-82
2021/12/31 06:04:17;;;;;;;7.70;5.43;;;;;;;;;;5031342;28;20025;-82
2021/12/31 06:06:43;;;;;;;9.75;5.30;;;;;;;;;;5032623;28;20021;-83
2021/12/31 06:09:11;;;;;;;6.60;4.68;;;;;;;;;;5015623;28;20100;-83
2021/12/31 06:11:37;;;;;;;72.40;37.63;;;;;;;;;;5032414;28;20025;-83
2021/12/31 06:14:04;;;;;;;15.30;9.32;;;;;;;;;;5014965;28;20056;-81
2021/12/31 06:16:41;;;;;;;14.70;8.05;;;;;;;;;;5032390;28;20021;-83
2021/12/31 06:19:12;;;;;;;31.65;12.48;;;;;;;;;;5013376;28;20075;-83
2021/12/31 06:21:39;;;;;;;19.55;9.27;;;;;;;;;;5036836;28;20041;-83
2021/12/31 06:24:06;;;;;;;31.52;12.88;;;;;;;;;;5038643;28;20036;-83
2021/12/31 06:26:31;;;;;;;25.92;12.63;;;;;;;;;;5049000;28;20480;-82
2021/12/31 06:28:57;;;;;;;19.80;9.98;;;;;;;;;;5050058;28;20024;-85
2021/12/31 06:31:24;;;;;;;12.88;7.85;;;;;;;;;;5049836;28;20555;-83
2021/12/31 06:33:51;;;;;;;14.55;6.90;;;;;;;;;;5046539;28;20047;-84
2021/12/31 06:36:17;;;;;;;9.95;6.50;;;;;;;;;;5032351;28;20380;-84
2021/12/31 06:38:43;;;;;;;11.68;7.15;;;;;;;;;;5046517;28;20029;-84
2021/12/31 06:41:09;;;;;;;21.58;12.93;;;;;;;;;;5049981;28;20051;-85
2021/12/31 06:43:35;;;;;;;10.27;6.45;;;;;;;;;;5034446;28;20131;-85
2021/12/31 06:46:00;;;;;;;8.35;5.63;;;;;;;;;;5033251;28;20437;-84
2021/12/31 06:48:26;;;;;;;13.07;6.70;;;;;;;;;;5052125;28;20071;-84
2021/12/31 06:50:51;;;;;;;9.07;5.75;;;;;;;;;;5044038;28;20025;-83
2021/12/31 06:53:17;;;;;;;8.75;5.70;;;;;;;;;;5040732;28;20120;-84
2021/12/31 06:55:43;;;;;;;8.85;5.07;;;;;;;;;;5031685;28;20025;-83
2021/12/31 06:58:08;;;;;;;9.32;5.82;;;;;;;;;;5032059;28;20178;-84
2021/12/31 07:00:35;;;;;;;13.65;7.15;;;;;;;;;;5045939;28;20488;-84
2021/12/31 07:03:12;;;;;;;8.05;5.97;;;;;;;;;;5045698;28;20029;-84
2021/12/31 07:05:40;;;;;;;12.00;6.15;;;;;;;;;;5049480;28;20071;-84
2021/12/31 07:08:12;;;;;;;12.73;7.00;;;;;;;;;;5035241;28;20037;-83
2021/12/31 07:10:38;;;;;;;11.45;6.60;;;;;;;;;;5038332;28;20028;-81
2021/12/31 07:13:10;;;;;;;16.42;7.97;;;;;;;;;;5042162;28;20024;-82
2021/12/31 07:15:37;;;;;;;8.88;4.72;;;;;;;;;;5046764;28;20425;-84
2021/12/31 07:18:03;;;;;;;10.02;6.88;;;;;;;;;;5037697;28;20025;-83
2021/12/31 07:20:28;;;;;;;19.63;10.85;;;;;;;;;;5047645;28;20384;-84
2021/12/31 07:22:54;;;;;;;7.90;4.45;;;;;;;;;;5035427;28;20533;-84
2021/12/31 07:25:19;;;;;;;7.07;4.07;;;;;;;;;;5033546;28;20072;-84
2021/12/31 07:27:45;;;;;;;10.23;5.32;;;;;;;;;;5043843;28;20527;-83
2021/12/31 07:30:12;;;;;;;6.80;4.55;;;;;;;;;;5032597;28;20104;-83
2021/12/31 07:32:39;;;;;;;6.60;3.97;;;;;;;;;;5032130;28;20124;-86
2021/12/31 07:35:05;;;;;;;4.85;2.85;;;;;;;;;;5048696;28;20051;-86
2021/12/31 07:37:31;;;;;;;45.38;28.40;;;;;;;;;;5041849;28;20079;-85
2021/12/31 07:40:02;;;;;;;68.82;37.67;;;;;;;;;;5052406;28;20028;-83
2021/12/31 07:42:28;;;;;;;26.58;14.38;;;;;;;;;;5034636;28;20025;-82
2021/12/31 07:44:53;;;;;;;5.25;4.00;;;;;;;;;;5035842;28;20075;-82
2021/12/31 07:47:19;;;;;;;5.45;3.15;;;;;;;;;;5046388;28;20025;-82
2021/12/31 07:49:44;;;;;;;4.85;3.42;;;;;;;;;;5040633;28;20028;-81
2021/12/31 07:52:10;;;;;;;5.13;3.55;;;;;;;;;;5047500;28;20503;-81
2021/12/31 07:54:35;;;;;;;6.72;4.03;;;;;;;;;;5051284;28;20674;-80
2021/12/31 07:57:01;;;;;;;4.47;2.92;;;;;;;;;;5047687;28;20025;-81
2021/12/31 07:59:26;;;;;;;28.63;11.10;;;;;;;;;;5050959;28;20380;-82
2021/12/31 08:01:52;;;;;;;6.28;3.10;;;;;;;;;;5049579;28;20115;-82
2021/12/31 08:04:17;;;;;;;11.52;6.43;;;;;;;;;;5049204;28;20024;-81
2021/12/31 08:06:43;;;;;;;14.35;5.22;;;;;;;;;;5053137;28;20131;-81
2021/12/31 08:09:08;;;;;;;21.13;9.20;;;;;;;;;;5057416;28;21189;-83
2021/12/31 08:11:34;;;;;;;10.70;6.55;;;;;;;;;;5058010;28;20039;-82
2021/12/31 08:13:59;;;;;;;7.05;4.85;;;;;;;;;;5057189;28;20057;-82
2021/12/31 08:16:25;;;;;;;12.00;5.97;;;;;;;;;;5056141;28;20162;-82
2021/12/31 08:18:50;;;;;;;4.68;3.25;;;;;;;;;;5052962;28;20108;-82
2021/12/31 08:21:16;;;;;;;5.03;2.85;;;;;;;;;;5052529;28;20048;-81
2021/12/31 08:23:41;;;;;;;6.28;3.15;;;;;;;;;;5052266;28;20027;-83
2021/12/31 08:26:07;;;;;;;4.28;3.10;;;;;;;;;;5041276;28;20036;-83
2021/12/31 08:28:32;;;;;;;5.53;2.63;;;;;;;;;;5049149;28;20020;-83
2021/12/31 08:30:58;;;;;;;3.03;2.00;;;;;;;;;;5046300;28;20108;-82
2021/12/31 08:33:26;;;;;;;4.82;2.65;;;;;;;;;;5036833;28;20031;-82
2021/12/31 08:35:51;;;;;;;4.38;2.58;;;;;;;;;;5049924;28;20025;-82
2021/12/31 08:38:17;;;;;;;13.35;6.63;;;;;;;;;;5044419;28;20035;-84
2021/12/31 08:40:42;;;;;;;4.13;2.90;;;;;;;;;;5049383;28;20104;-82
2021/12/31 08:43:08;;;;;;;8.23;5.35;;;;;;;;;;5050622;28;20035;-82
2021/12/31 08:45:34;;;;;;;10.73;6.65;;;;;;;;;;5051610;28;20099;-81
2021/12/31 08:48:00;;;;;;;4.57;2.95;;;;;;;;;;5038703;28;20029;-80
2021/12/31 08:50:26;;;;;;;5.63;3.35;;;;;;;;;;5040802;28;20107;-81
2021/12/31 08:52:53;;;;;;;6.57;4.13;;;;;;;;;;5053596;28;20036;-81
2021/12/31 08:55:18;;;;;;;8.43;5.55;;;;;;;;;;5052989;28;20033;-83
2021/12/31 08:57:44;;;;;;;12.20;6.70;;;;;;;;;;5050262;28;20032;-81
2021/12/31 09:00:10;;;;;;;11.93;7.25;;;;;;;;;;5043598;28;20045;-83
2021/12/31 09:02:38;;;;;;;12.15;6.95;;;;;;;;;;5047583;28;20029;-82
2021/12/31 09:05:04;;;;;;;18.80;10.13;;;;;;;;;;5044866;28;20108;-81
2021/12/31 09:07:30;;;;;;;12.35;7.63;;;;;;;;;;5048119;28;20492;-80
2021/12/31 09:09:55;;;;;;;11.80;7.60;;;;;;;;;;5055848;28;20017;-83
2021/12/31 09:12:21;;;;;;;12.60;8.48;;;;;;;;;;5049543;28;20036;-80
2021/12/31 09:14:46;;;;;;;9.82;6.97;;;;;;;;;;5042061;28;20049;-80
2021/12/31 09:17:12;;;;;;;10.60;7.55;;;;;;;;;;5051686;28;20101;-82
2021/12/31 09:19:37;;;;;;;14.00;7.82;;;;;;;;;;5049640;28;20048;-80
2021/12/31 09:22:04;;;;;;;14.98;8.38;;;;;;;;;;5051205;28;20144;-81
2021/12/31 09:24:30;;;;;;;13.50;8.77;;;;;;;;;;5049505;28;20032;-79
2021/12/31 09:26:56;;;;;;;11.88;7.75;;;;;;;;;;5048998;28;20029;-79
2021/12/31 09:29:23;;;;;;;13.77;8.65;;;;;;;;;;5050888;28;20025;-78
2021/12/31 09:31:50;;;;;;;12.68;8.48;;;;;;;;;;5049557;28;20043;-79
2021/12/31 09:34:16;;;;;;;13.07;8.73;;;;;;;;;;5048750;28;20028;-81
2021/12/31 09:36:42;;;;;;;17.20;8.73;;;;;;;;;;5049999;28;21474;-80
2021/12/31 09:39:08;;;;;;;11.95;8.05;;;;;;;;;;5053940;28;20029;-80
2021/12/31 09:41:34;;;;;;;12.50;8.30;;;;;;;;;;5042265;28;20033;-79
2021/12/31 09:44:00;;;;;;;13.18;8.30;;;;;;;;;;5051714;28;20126;-80
2021/12/31 09:46:26;;;;;;;20.08;10.55;;;;;;;;;;5050006;28;20036;-79
2021/12/31 09:48:51;;;;;;;14.27;9.27;;;;;;;;;;5049688;28;20033;-80
2021/12/31 09:51:17;;;;;;;15.20;9.55;;;;;;;;;;5037260;28;20086;-78
2021/12/31 09:53:43;;;;;;;19.00;10.02;;;;;;;;;;5034632;28;20055;-80
2021/12/31 09:56:09;;;;;;;16.35;10.18;;;;;;;;;;5051364;28;20104;-78
2021/12/31 09:58:36;;;;;;;16.40;10.07;;;;;;;;;;5045751;28;20112;-80
2021/12/31 10:01:02;;;;;;;17.83;10.73;;;;;;;;;;5023798;28;20447;-80
2021/12/31 10:03:33;;;;;;;18.65;11.20;;;;;;;;;;5041225;28;20083;-78
2021/12/31 10:06:08;;;;;;;17.45;11.10;;;;;;;;;;5040064;28;20029;-80
2021/12/31 10:08:41;;;;;;;21.17;11.95;;;;;;;;;;5025763;28;20025;-79
2021/12/31 10:11:11;;;;;;;16.88;10.25;;;;;;;;;;5022865;28;20044;-80
2021/12/31 10:13:55;;;;;;;16.58;10.20;;;;;;;;;;5043714;28;20447;-79
2021/12/31 10:16:28;;;;;;;15.70;10.32;;;;;;;;;;5038932;28;20079;-79
2021/12/31 10:19:11;;;;;;;14.18;9.48;;;;;;;;;;5044748;28;20104;-80
2021/12/31 10:21:57;;;;;;;16.60;8.95;;;;;;;;;;5038669;28;20037;-80
2021/12/31 10:24:25;;;;;;;17.17;9.27;;;;;;;;;;5036972;28;20037;-79
2021/12/31 10:26:52;;;;;;;16.75;9.90;;;;;;;;;;5046315;28;20037;-78
2021/12/31 10:29:19;;;;;;;14.05;8.88;;;;;;;;;;5052975;28;20044;-78
2021/12/31 10:31:46;;;;;;;15.07;8.05;;;;;;;;;;5050642;28;20098;-79
2021/12/31 10:34:30;;;;;;;13.52;9.45;;;;;;;;;;5031620;28;20041;-80
2021/12/31 10:36:58;;;;;;;13.55;9.00;;;;;;;;;;5029870;28;20116;-79
2021/12/31 10:39:26;;;;;;;11.88;7.78;;;;;;;;;;5047618;28;20033;-79
2021/12/31 10:42:10;;;;;;;12.02;7.53;;;;;;;;;;5043679;28;20028;-80
2021/12/31 10:44:44;;;;;;;12.85;7.32;;;;;;;;;;5043855;28;20713;-79
2021/12/31 10:47:18;;;;;;;12.18;7.03;;;;;;;;;;5042810;28;20393;-80
2021/12/31 10:50:09;;;;;;;5.75;3.60;;;;;;;;;;5047530;28;20145;-78
2021/12/31 10:52:38;;;;;;;5.20;3.53;;;;;;;;;;5042038;28;20029;-79
2021/12/31 10:55:27;;;;;;;5.55;3.47;;;;;;;;;;5043653;28;20027;-79
2021/12/31 10:57:57;;;;;;;4.03;3.08;;;;;;;;;;5043583;28;20040;-79
2021/12/31 11:00:25;;;;;;;7.25;3.45;;;;;;;;;;5033024;28;20028;-80
2021/12/31 11:02:50;;;;;;;4.35;3.10;;;;;;;;;;5043829;28;20086;-79
2021/12/31 11:05:21;;;;;;;4.15;2.80;;;;;;;;;;5042829;28;20041;-78
2021/12/31 11:07:47;;;;;;;5.07;2.92;;;;;;;;;;5041871;28;20033;-79
2021/12/31 11:10:14;;;;;;;5.50;3.10;;;;;;;;;;5043443;28;20381;-78
2021/12/31 11:12:45;;;;;;;5.35;2.67;;;;;;;;;;5044630;28;20021;-79
2021/12/31 11:15:11;;;;;;;4.20;2.90;;;;;;;;;;5046966;28;20053;-80
2021/12/31 11:17:37;;;;;;;5.82;3.30;;;;;;;;;;5040571;28;20061;-78
2021/12/31 11:20:05;;;;;;;4.90;2.58;;;;;;;;;;5043888;28;20029;-79
2021/12/31 11:22:31;;;;;;;4.82;3.08;;;;;;;;;;5048092;28;20052;-79
2021/12/31 11:25:22;;;;;;;4.32;3.30;;;;;;;;;;5050657;28;20149;-80
2021/12/31 11:27:48;;;;;;;4.32;2.30;;;;;;;;;;5038136;28;20103;-78
2021/12/31 11:30:43;;;;;;;4.15;2.97;;;;;;;;;;5052522;28;20112;-80
2021/12/31 11:33:10;;;;;;;5.10;2.70;;;;;;;;;;5032086;28;20060;-80
2021/12/31 11:35:37;;;;;;;4.32;3.13;;;;;;;;;;5052528;28;20067;-81
2021/12/31 11:38:27;;;;;;;6.22;2.92;;;;;;;;;;5051513;28;20033;-81
2021/12/31 11:41:07;;;;;;;5.60;3.17;;;;;;;;;;5027673;28;20519;-81
2021/12/31 11:43:35;;;;;;;;;;;;;;;;;;5050640;28;20044;-82
2021/12/31 11:46:15;;;;;;;5.43;3.45;;;;;;;;;;5049580;28;19959;-80
2021/12/31 11:48:43;;;;;;;5.60;3.08;;;;;;;;;;5047460;28;20032;-80
2021/12/31 11:51:13;;;;;;;9.55;5.13;;;;;;;;;;5046152;28;20549;-79
2021/12/31 11:53:57;;;;;;;5.32;3.45;;;;;;;;;;5047319;28;20029;-79
2021/12/31 11:56:45;;;;;;;5.72;2.60;;;;;;;;;;5040133;28;20045;-82
2021/12/31 11:59:11;;;;;;;5.38;2.88;;;;;;;;;;5045322;28;20108;-83
2021/12/31 12:01:36;;;;;;;4.72;2.75;;;;;;;;;;5052457;28;20108;-82
2021/12/31 12:04:30;;;;;;;4.35;2.65;;;;;;;;;;5056714;28;20037;-82
2021/12/31 12:07:00;;;;;;;4.38;2.72;;;;;;;;;;5051136;28;20021;-81
2021/12/31 12:09:37;;;;;;;5.35;3.08;;;;;;;;;;5053603;28;20033;-81
2021/12/31 12:12:11;;;;;;;6.22;3.95;;;;;;;;;;5051276;28;20087;-81
2021/12/31 12:14:41;;;;;;;5.45;2.35;;;;;;;;;;5055225;28;20029;-79
2021/12/31 12:17:09;;;;;;;4.50;2.50;;;;;;;;;;5051161;28;20112;-81
2021/12/31 12:19:46;;;;;;;4.50;2.42;;;;;;;;;;5052557;28;20028;-82
2021/12/31 12:22:25;;;;;;;3.83;2.20;;;;;;;;;;5025440;28;20053;-81
2021/12/31 12:24:52;;;;;;;4.80;3.05;;;;;;;;;;5031049;28;20394;-82
2021/12/31 12:27:19;;;;;;;4.00;2.67;;;;;;;;;;5018390;28;20053;-81
2021/12/31 12:29:45;;;;;;;8.45;4.28;;;;;;;;;;5036365;28;20108;-83
2021/12/31 12:32:12;;;;;;;4.53;3.05;;;;;;;;;;5034189;28;20385;-82
2021/12/31 12:34:38;;;;;;;5.25;3.47;;;;;;;;;;5032744;28;20033;-81
2021/12/31 12:37:04;;;;;;;6.07;3.55;;;;;;;;;;5033049;28;20021;-81
2021/12/31 12:39:30;;;;;;;4.55;2.88;;;;;;;;;;5013162;28;20040;-82
2021/12/31 12:41:56;;;;;;;7.75;3.42;;;;;;;;;;5033741;28;20025;-80
2021/12/31 12:44:21;;;;;;;4.18;2.28;;;;;;;;;;5032638;28;20519;-81
2021/12/31 12:46:58;;;;;;;3.92;2.42;;;;;;;;;;5029413;28;20021;-81
2021/12/31 12:49:26;;;;;;;3.92;2.38;;;;;;;;;;5032244;28;20101;-80
2021/12/31 12:51:54;;;;;;;5.22;3.33;;;;;;;;;;5031445;28;20024;-80
2021/12/31 12:54:22;;;;;;;4.43;2.90;;;;;;;;;;5029305;28;20040;-80
2021/12/31 12:56:48;;;;;;;5.35;3.05;;;;;;;;;;5010711;28;20448;-81
2021/12/31 12:59:20;;;;;;;3.80;2.53;;;;;;;;;;5032799;28;20362;-81
2021/12/31 13:01:47;;;;;;;5.45;3.33;;;;;;;;;;5028580;28;20473;-81
2021/12/31 13:04:14;;;;;;;6.53;4.80;;;;;;;;;;5025422;28;20091;-80
2021/12/31 13:06:43;;;;;;;6.75;4.32;;;;;;;;;;5030569;28;20034;-83
2021/12/31 13:09:18;;;;;;;6.00;4.05;;;;;;;;;;5031862;28;20396;-81
2021/12/31 13:11:47;;;;;;;5.95;4.20;;;;;;;;;;5031532;28;20029;-82
2021/12/31 13:14:18;;;;;;;5.88;3.80;;;;;;;;;;5031913;28;20029;-82
2021/12/31 13:16:48;;;;;;;5.47;3.67;;;;;;;;;;5033471;28;20388;-84
2021/12/31 13:19:15;;;;;;;;;;;;;;;;;;5028661;28;20473;-81
2021/12/31 13:21:41;;;;;;;6.75;3.85;;;;;;;;;;5036874;28;20292;-81
2021/12/31 13:24:07;;;;;;;4.18;2.60;;;;;;;;;;5047638;28;20029;-81
2021/12/31 13:26:34;;;;;;;6.38;3.58;;;;;;;;;;5043849;28;20032;-86
2021/12/31 13:29:06;;;;;;;5.30;3.53;;;;;;;;;;5051653;28;20489;-80
2021/12/31 13:31:40;;;;;;;7.35;3.47;;;;;;;;;;5049081;28;20020;-81
2021/12/31 13:34:18;;;;;;;5.90;3.80;;;;;;;;;;5038201;28;20035;-82
2021/12/31 13:36:54;;;;;;;4.72;3.17;;;;;;;;;;5051683;28;20455;-83
2021/12/31 13:39:31;;;;;;;7.20;4.40;;;;;;;;;;5050853;28;20035;-79
2021/12/31 13:42:02;;;;;;;6.53;4.15;;;;;;;;;;5034876;28;20039;-82
2021/12/31 13:44:32;;;;;;;5.45;3.55;;;;;;;;;;5046765;28;20167;-81
2021/12/31 13:47:05;;;;;;;8.55;4.45;;;;;;;;;;5050631;28;20470;-79
2021/12/31 13:49:32;;;;;;;5.80;4.00;;;;;;;;;;5051725;28;20388;-82
2021/12/31 13:51:58;;;;;;;5.68;3.85;;;;;;;;;;5036537;28;20047;-80
2021/12/31 13:54:39;;;;;;;5.82;3.58;;;;;;;;;;5047410;28;20155;-82
2021/12/31 13:57:16;;;;;;;6.18;3.83;;;;;;;;;;5047235;28;20031;-80
2021/12/31 13:59:42;;;;;;;4.50;3.45;;;;;;;;;;5048347;28;20031;-81
2021/12/31 14:02:28;;;;;;;3.75;2.63;;;;;;;;;;5052576;28;20036;-79
2021/12/31 14:04:54;;;;;;;5.15;3.03;;;;;;;;;;5048630;28;20033;-81
2021/12/31 14:10:26;;;;;;;5.47;3.72;;;;;;;;;;5048361;28;20029;-81
2021/12/31 14:13:10;;;;;;;5.18;3.80;;;;;;;;;;5034263;28;20032;-81
2021/12/31 14:15:42;;;;;;;4.35;3.22;;;;;;;;;;5051368;28;20027;-81
2021/12/31 14:18:12;;;;;;;5.00;3.80;;;;;;;;;;5046587;28;20484;-82
2021/12/31 14:20:38;;;;;;;;;;;;;;;;;;5028306;28;20476;-83
2021/12/31 14:23:05;;;;;;;4.05;3.15;;;;;;;;;;5045777;28;20839;-82
2021/12/31 14:25:32;;;;;;;5.78;3.17;;;;;;;;;;5047404;28;20045;-80
2021/12/31 14:27:58;;;;;;;6.47;4.10;;;;;;;;;;5045827;28;20108;-81
2021/12/31 14:30:26;;;;;;;6.43;4.25;;;;;;;;;;5051823;28;20078;-80
2021/12/31 14:32:52;;;;;;;9.13;6.22;;;;;;;;;;5033882;28;20032;-81
2021/12/31 14:35:22;;;;;;;7.40;5.93;;;;;;;;;;5048136;28;20033;-82
2021/12/31 14:37:47;;;;;;;7.38;4.63;;;;;;;;;;5051986;28;20518;-81
2021/12/31 14:40:15;;;;;;;7.18;4.63;;;;;;;;;;5045284;28;20030;-81
2021/12/31 14:42:41;;;;;;;8.98;6.00;;;;;;;;;;5045608;28;20028;-80
2021/12/31 14:45:09;;;;;;;6.50;4.55;;;;;;;;;;5043640;28;20039;-80
2021/12/31 14:47:37;;;;;;;5.05;3.92;;;;;;;;;;5044847;28;20107;-81